Time;durP1;ratioP1;P1;durP2;ratioP2;P2;SDS_P1;SDS_P2;PMS_P1;PMS_P2;Temp;Humidity;BMP_temperature;BMP_pressure;BME280_temperature;BME280_humidity;BME280_pressure;Samples;Min_cycle;Max_cycle;Signal;HPM_P1;HPM_P2
2021/07/20 00:00:26;;;;;;;19.13;11.07;;;13.80;1.00;;;;;;5013002;28;20202;-56
2021/07/20 00:02:54;;;;;;;17.37;11.03;;;13.80;1.00;;;;;;5012779;28;20269;-60
2021/07/20 00:05:23;;;;;;;18.33;11.40;;;13.70;1.00;;;;;;5012615;28;20209;-58
2021/07/20 00:07:50;;;;;;;18.10;11.50;;;13.70;93.40;;;;;;5012506;28;20597;-55
2021/07/20 00:10:21;;;;;;;18.03;11.53;;;13.70;99.90;;;;;;5012646;28;20256;-57
2021/07/20 00:12:47;;;;;;;18.50;11.77;;;13.70;99.90;;;;;;5012681;28;20607;-55
2021/07/20 00:15:17;;;;;;;18.57;10.93;;;13.70;99.90;;;;;;5012570;28;20268;-52
2021/07/20 00:17:45;;;;;;;19.03;12.23;;;13.70;1.00;;;;;;5012495;28;20299;-55
2021/07/20 00:20:15;;;;;;;18.40;11.50;;;13.60;1.00;;;;;;5012551;28;20242;-52
2021/07/20 00:22:42;;;;;;;20.30;11.57;;;13.60;1.00;;;;;;5012608;28;20214;-58
2021/07/20 00:25:10;;;;;;;19.77;11.90;;;13.60;7.50;;;;;;5012275;28;20690;-58
2021/07/20 00:27:37;;;;;;;22.63;11.80;;;13.60;99.90;;;;;;5015050;28;20233;-57
2021/07/20 00:30:05;;;;;;;20.43;12.57;;;13.60;99.90;;;;;;5015238;28;20296;-57
2021/07/20 00:32:33;;;;;;;21.43;11.93;;;13.60;99.90;;;;;;5016274;28;20210;-58
2021/07/20 00:35:00;;;;;;;18.77;11.60;;;13.60;99.90;;;;;;5014361;28;20256;-56
2021/07/20 00:37:27;;;;;;;20.33;12.23;;;13.60;99.90;;;;;;5012315;28;20230;-59
2021/07/20 00:39:53;;;;;;;20.60;12.00;;;13.50;99.90;;;;;;5012294;28;20276;-59
2021/07/20 00:42:20;;;;;;;19.10;12.30;;;13.50;99.90;;;;;;5012371;28;20619;-53
2021/07/20 00:44:46;;;;;;;21.73;12.57;;;13.50;99.90;;;;;;5012149;28;20213;-57
2021/07/20 00:47:14;;;;;;;20.50;12.23;;;13.50;99.90;;;;;;5015736;28;20593;-59
2021/07/20 00:49:43;;;;;;;20.40;12.03;;;13.40;99.90;;;;;;5016157;28;20288;-56
2021/07/20 00:52:09;;;;;;;18.17;11.60;;;13.40;99.90;;;;;;5015976;28;20256;-59
2021/07/20 00:54:37;;;;;;;20.60;12.17;;;13.30;1.00;;;;;;5016161;28;20259;-54
2021/07/20 00:57:05;;;;;;;19.00;11.77;;;13.30;1.00;;;;;;5016046;28;20210;-57
2021/07/20 00:59:33;;;;;;;17.53;12.13;;;13.30;1.00;;;;;;5016192;28;20203;-56
2021/07/20 01:01:59;;;;;;;19.63;12.30;;;13.20;1.00;;;;;;5015889;28;20210;-54
2021/07/20 01:04:26;;;;;;;18.07;11.60;;;13.20;1.00;;;;;;5015776;28;20211;-60
2021/07/20 01:06:57;;;;;;;15.40;11.10;;;13.20;1.00;;;;;;5015698;28;20688;-57
2021/07/20 01:09:25;;;;;;;20.27;12.40;;;13.20;3.40;;;;;;5015978;28;20213;-59
2021/07/20 01:11:52;;;;;;;20.87;12.13;;;13.20;16.00;;;;;;5015938;28;20206;-57
2021/07/20 01:14:20;;;;;;;18.30;12.07;;;13.20;66.30;;;;;;5015775;28;20213;-58
2021/07/20 01:16:47;;;;;;;20.53;12.83;;;13.20;99.90;;;;;;5015821;28;20260;-59
2021/07/20 01:19:16;;;;;;;19.33;12.80;;;13.20;99.90;;;;;;5015487;28;20564;-58
2021/07/20 01:21:44;;;;;;;22.13;12.57;;;13.20;99.90;;;;;;5015882;28;20422;-57
2021/07/20 01:24:15;;;;;;;19.70;11.87;;;13.20;99.90;;;;;;5015515;28;20210;-60
2021/07/20 01:26:42;;;;;;;22.50;11.03;;;13.20;99.90;;;;;;5015809;28;20213;-56
2021/07/20 01:29:11;;;;;;;18.57;11.87;;;13.20;99.90;;;;;;5015326;28;20284;-60
2021/07/20 01:31:42;;;;;;;20.60;11.17;;;13.20;99.90;;;;;;5015292;28;20257;-56
2021/07/20 01:34:13;;;;;;;23.87;11.93;;;13.10;99.90;;;;;;5015676;28;20605;-57
2021/07/20 01:36:40;;;;;;;21.27;12.43;;;13.10;99.90;;;;;;5015455;28;20214;-56
2021/07/20 01:39:10;;;;;;;20.87;12.13;;;13.10;1.00;;;;;;5015482;28;20369;-59
2021/07/20 01:41:40;;;;;;;23.03;13.30;;;13.10;1.00;;;;;;5015236;28;20237;-53
2021/07/20 01:44:10;;;;;;;18.73;11.90;;;13.10;1.00;;;;;;5015047;28;20204;-57
2021/07/20 01:46:39;;;;;;;19.67;12.13;;;13.00;1.00;;;;;;5015161;28;20212;-60
2021/07/20 01:49:09;;;;;;;20.53;11.90;;;13.00;1.00;;;;;;5015031;28;20253;-56
2021/07/20 01:51:37;;;;;;;20.17;12.03;;;13.00;1.00;;;;;;5014877;28;20709;-58
2021/07/20 01:54:06;;;;;;;21.93;12.30;;;12.90;1.00;;;;;;5014951;28;20222;-59
2021/07/20 01:56:32;;;;;;;22.50;12.30;;;13.00;1.00;;;;;;5015035;28;20247;-58
2021/07/20 01:59:01;;;;;;;23.53;12.40;;;12.90;6.40;;;;;;5014887;28;20234;-59
2021/07/20 02:01:29;;;;;;;20.83;12.10;;;12.90;96.70;;;;;;5015117;28;20210;-59
2021/07/20 02:04:21;;;;;;;18.57;11.67;;;12.90;99.90;;;;;;5014967;28;20295;-58
2021/07/20 02:09:37;;;;;;;21.77;13.23;;;12.90;99.90;;;;;;5014781;28;20206;-57
2021/07/20 02:12:12;;;;;;;22.33;12.77;;;12.90;99.90;;;;;;5014932;28;20265;-60
2021/07/20 02:14:43;;;;;;;19.80;12.53;;;12.90;99.90;;;;;;5014592;28;20259;-58
2021/07/20 02:17:11;;;;;;;22.13;13.20;;;12.90;99.90;;;;;;5014630;28;20209;-59
2021/07/20 02:19:41;;;;;;;22.53;13.10;;;12.80;1.00;;;;;;5014260;28;20212;-56
2021/07/20 02:22:08;;;;;;;22.10;12.30;;;12.80;1.00;;;;;;5014698;28;20207;-58
2021/07/20 02:24:36;;;;;;;19.50;12.63;;;12.70;1.00;;;;;;5014418;28;20207;-58
2021/07/20 02:27:06;;;;;;;23.83;13.17;;;12.70;1.00;;;;;;5014504;28;20632;-53
2021/07/20 02:29:33;;;;;;;22.13;12.23;;;12.70;1.00;;;;;;5014478;28;20250;-57
2021/07/20 02:32:04;;;;;;;22.30;12.40;;;12.60;1.00;;;;;;5014320;28;20207;-60
2021/07/20 02:34:34;;;;;;;24.63;13.83;;;12.60;1.00;;;;;;5014258;28;20211;-55
2021/07/20 02:37:01;;;;;;;21.17;12.57;;;12.60;85.60;;;;;;5014397;28;20211;-58
2021/07/20 02:39:29;;;;;;;22.70;12.93;;;12.50;91.60;;;;;;5014349;28;20207;-58
2021/07/20 02:41:57;;;;;;;21.57;12.43;;;12.50;99.90;;;;;;5014086;28;20278;-56
2021/07/20 02:44:26;;;;;;;22.23;13.27;;;12.50;99.90;;;;;;5014021;28;20217;-55
2021/07/20 02:46:53;;;;;;;29.30;14.37;;;12.50;99.90;;;;;;5013819;28;20676;-58
2021/07/20 02:49:22;;;;;;;29.60;14.03;;;12.50;99.90;;;;;;5013774;28;20736;-58
2021/07/20 02:51:51;;;;;;;22.87;13.23;;;12.50;1.00;;;;;;5014102;28;20277;-58
2021/07/20 02:54:22;;;;;;;23.57;13.37;;;12.50;1.00;;;;;;5013910;28;20274;-58
2021/07/20 02:56:49;;;;;;;25.10;14.07;;;12.50;1.00;;;;;;5013905;28;20267;-60
2021/07/20 02:59:19;;;;;;;28.97;14.90;;;12.50;1.00;;;;;;5013586;28;20577;-58
2021/07/20 03:01:47;;;;;;;26.90;14.63;;;12.50;1.00;;;;;;5013929;28;20209;-58
2021/07/20 03:04:14;;;;;;;22.80;14.53;;;12.60;99.90;;;;;;5013636;28;20212;-58
2021/07/20 03:06:49;;;;;;;26.87;14.60;;;12.60;99.90;;;;;;5013876;28;20768;-58
2021/07/20 03:09:17;;;;;;;22.50;12.80;;;12.50;99.90;;;;;;5013250;28;20232;-57
2021/07/20 03:11:46;;;;;;;24.83;13.40;;;12.60;1.00;;;;;;5013633;28;20234;-60
2021/07/20 03:14:16;;;;;;;21.30;12.67;;;12.50;1.00;;;;;;5013527;28;20261;-56
2021/07/20 03:16:45;;;;;;;28.23;14.40;;;12.50;1.00;;;;;;5013792;28;20280;-56
2021/07/20 03:19:13;;;;;;;26.67;14.00;;;12.50;1.00;;;;;;5013334;28;20231;-58
2021/07/20 03:21:44;;;;;;;24.93;14.63;;;12.60;99.90;;;;;;5013594;28;20201;-57
2021/07/20 03:24:12;;;;;;;22.80;13.27;;;12.60;99.90;;;;;;5013091;28;20203;-58
2021/07/20 03:26:39;;;;;;;23.37;13.83;;;12.60;99.90;;;;;;5013523;28;20257;-58
2021/07/20 03:29:08;;;;;;;23.80;13.47;;;12.60;1.00;;;;;;5013219;28;20719;-59
2021/07/20 03:31:36;;;;;;;28.60;14.47;;;12.60;1.00;;;;;;5013331;28;20834;-56
2021/07/20 03:34:03;;;;;;;24.00;14.10;;;12.60;1.00;;;;;;5013093;28;20203;-58
2021/07/20 03:36:31;;;;;;;27.50;14.40;;;12.60;1.00;;;;;;5013114;28;20211;-58
2021/07/20 03:39:03;;;;;;;25.27;14.23;;;12.70;1.00;;;;;;5013056;28;20643;-58
2021/07/20 03:41:31;;;;;;;22.63;13.10;;;12.60;1.00;;;;;;5013264;28;20279;-60
2021/07/20 03:43:59;;;;;;;26.23;13.93;;;12.60;1.00;;;;;;5012721;28;20209;-59
2021/07/20 03:46:25;;;;;;;23.20;13.80;;;12.60;1.00;;;;;;5012670;28;20215;-58
2021/07/20 03:48:53;;;;;;;25.60;13.50;;;12.50;1.00;;;;;;5012610;28;20237;-58
2021/07/20 03:51:22;;;;;;;24.47;13.50;;;12.50;1.00;;;;;;5012669;28;20277;-55
2021/07/20 03:53:49;;;;;;;21.57;13.30;;;12.50;1.00;;;;;;5012743;28;20216;-60
2021/07/20 03:56:19;;;;;;;22.97;13.37;;;12.50;1.00;;;;;;5012946;28;20253;-58
2021/07/20 03:58:48;;;;;;;28.67;14.43;;;12.50;1.00;;;;;;5012575;28;20797;-56
2021/07/20 04:01:15;;;;;;;27.20;14.80;;;12.50;1.00;;;;;;5012772;28;20612;-57
2021/07/20 04:03:45;;;;;;;22.67;13.70;;;12.50;1.00;;;;;;5012387;28;20770;-61
2021/07/20 04:06:15;;;;;;;24.20;13.97;;;12.50;1.00;;;;;;5013029;28;20270;-59
2021/07/20 04:08:43;;;;;;;21.23;14.00;;;12.50;1.00;;;;;;5012654;28;20237;-53
2021/07/20 04:11:11;;;;;;;22.17;13.00;;;12.50;1.00;;;;;;5012606;28;20253;-55
2021/07/20 04:13:39;;;;;;;23.43;13.27;;;12.50;1.00;;;;;;5012410;28;20213;-56
2021/07/20 04:16:08;;;;;;;21.17;13.33;;;12.50;1.00;;;;;;5012552;28;20211;-55
2021/07/20 04:18:36;;;;;;;22.63;13.30;;;12.50;99.90;;;;;;5010406;28;20300;-58
2021/07/20 04:21:04;;;;;;;24.00;14.50;;;12.60;1.00;;;;;;5018710;28;20200;-55
2021/07/20 04:23:32;;;;;;;27.00;14.03;;;12.60;1.00;;;;;;5012949;28;20213;-60
2021/07/20 04:25:59;;;;;;;26.23;13.80;;;12.60;1.00;;;;;;5013194;28;20257;-59
2021/07/20 04:28:27;;;;;;;24.53;13.53;;;12.60;1.00;;;;;;5012523;28;20223;-55
2021/07/20 04:30:58;;;;;;;24.73;14.00;;;12.70;99.90;;;;;;5011923;28;20225;-50
2021/07/20 04:33:29;;;;;;;29.47;14.40;;;12.70;99.90;;;;;;5012786;28;20656;-59
2021/07/20 04:35:56;;;;;;;26.17;14.33;;;12.70;99.90;;;;;;5012518;28;20210;-60
2021/07/20 04:38:25;;;;;;;23.33;14.70;;;12.70;99.90;;;;;;5031919;28;20226;-60
2021/07/20 04:40:52;;;;;;;25.10;14.50;;;12.70;99.90;;;;;;5031553;28;20671;-61
2021/07/20 04:43:19;;;;;;;25.77;13.80;;;12.80;1.00;;;;;;5031745;28;20205;-61
2021/07/20 04:45:48;;;;;;;24.30;14.50;;;12.80;1.00;;;;;;5031630;28;20215;-61
2021/07/20 04:48:17;;;;;;;29.77;15.47;;;12.90;1.00;;;;;;5031701;28;20331;-61
2021/07/20 04:50:45;;;;;;;29.53;16.07;;;12.90;99.90;;;;;;5031824;28;20232;-60
2021/07/20 04:53:13;;;;;;;30.07;15.17;;;13.00;99.90;;;;;;5031647;28;20580;-59
2021/07/20 04:55:42;;;;;;;28.23;14.07;;;13.00;99.90;;;;;;5031969;28;20269;-58
2021/07/20 04:58:09;;;;;;;27.20;15.20;;;13.10;99.90;;;;;;5031446;28;20859;-58
2021/07/20 05:00:36;;;;;;;26.17;14.83;;;13.20;99.90;;;;;;5031883;28;20274;-58
2021/07/20 05:03:05;;;;;;;26.83;14.77;;;13.30;1.00;;;;;;5031835;28;20255;-58
2021/07/20 05:05:39;;;;;;;28.17;15.33;;;13.30;1.00;;;;;;5031704;28;20218;-59
2021/07/20 05:08:08;;;;;;;27.93;14.97;;;13.30;1.00;;;;;;5031470;28;20238;-60
2021/07/20 05:10:36;;;;;;;31.00;16.13;;;13.30;1.00;;;;;;5031083;28;20211;-59
2021/07/20 05:13:03;;;;;;;28.27;16.50;;;13.30;99.90;;;;;;5031462;28;20266;-58
2021/07/20 05:15:30;;;;;;;27.80;16.70;;;13.30;99.90;;;;;;5031439;28;20769;-56
2021/07/20 05:17:57;;;;;;;29.13;16.43;;;13.30;99.90;;;;;;5031326;28;20276;-60
2021/07/20 05:20:26;;;;;;;29.77;16.00;;;13.40;99.90;;;;;;5031501;28;20211;-59
2021/07/20 05:22:55;;;;;;;29.63;15.87;;;13.40;1.00;;;;;;5031304;28;20206;-59
2021/07/20 05:25:22;;;;;;;27.67;16.03;;;13.40;1.00;;;;;;5031409;28;20283;-58
2021/07/20 05:27:53;;;;;;;28.67;15.97;;;13.50;29.40;;;;;;5031334;28;20280;-62
2021/07/20 05:30:21;;;;;;;30.47;16.07;;;13.50;43.10;;;;;;5028891;28;20206;-56
2021/07/20 05:32:49;;;;;;;27.47;15.77;;;13.50;99.90;;;;;;5026200;28;20275;-58
2021/07/20 05:35:17;;;;;;;31.67;16.47;;;13.50;7.30;;;;;;5014447;28;20212;-59
2021/07/20 05:37:44;;;;;;;32.07;16.90;;;13.50;8.50;;;;;;5014918;28;20236;-58
2021/07/20 05:40:15;;;;;;;32.60;17.20;;;13.60;96.00;;;;;;5014987;28;20215;-60
2021/07/20 05:42:43;;;;;;;35.77;17.30;;;13.60;1.00;;;;;;5014771;28;20212;-60
2021/07/20 05:45:11;;;;;;;35.73;18.87;;;13.60;1.00;;;;;;5014425;28;20733;-60
2021/07/20 05:47:42;;;;;;;33.33;16.83;;;13.60;30.20;;;;;;5014545;28;20230;-61
2021/07/20 05:50:10;;;;;;;32.00;18.33;;;13.80;60.00;;;;;;5014578;28;20209;-61
2021/07/20 05:52:40;;;;;;;31.33;17.70;;;13.90;99.90;;;;;;5014353;28;20230;-60
2021/07/20 05:55:09;;;;;;;28.77;17.37;;;14.10;43.70;;;;;;5014738;28;20203;-60
2021/07/20 05:57:39;;;;;;;30.13;17.37;;;14.20;99.90;;;;;;5014638;28;20292;-61
2021/07/20 06:00:08;;;;;;;31.23;16.87;;;14.30;98.20;;;;;;5014788;28;20646;-59
2021/07/20 06:02:36;;;;;;;27.67;15.90;;;14.50;1.00;;;;;;5014184;28;20210;-59
2021/07/20 06:05:04;;;;;;;33.00;16.83;;;14.70;1.00;;;;;;5014161;28;20214;-60
2021/07/20 06:07:31;;;;;;;31.07;16.77;;;14.90;1.00;;;;;;5014367;28;20234;-61
2021/07/20 06:09:58;;;;;;;29.10;16.80;;;15.00;99.90;;;;;;5014326;28;20579;-61
2021/07/20 06:12:27;;;;;;;31.53;16.93;;;15.20;17.70;;;;;;5014674;28;20284;-61
2021/07/20 06:14:56;;;;;;;26.50;15.83;;;15.40;1.00;;;;;;5033514;28;20213;-62
2021/07/20 06:17:24;;;;;;;28.23;14.90;;;15.60;99.90;;;;;;5033837;28;20234;-63
2021/07/20 06:19:51;;;;;;;26.27;14.77;;;15.60;99.90;;;;;;5034164;28;20213;-63
2021/07/20 06:22:22;;;;;;;24.83;14.80;;;15.60;1.00;;;;;;5033904;28;20663;-64
2021/07/20 06:24:51;;;;;;;23.80;14.10;;;15.70;1.00;;;;;;5033644;28;20206;-65
2021/07/20 06:27:19;;;;;;;21.70;12.70;;;15.70;1.00;;;;;;5033737;28;20268;-64
2021/07/20 06:29:52;;;;;;;21.13;11.97;;;15.70;1.00;;;;;;5033474;28;20214;-62
2021/07/20 06:32:21;;;;;;;18.20;11.60;;;15.70;99.90;;;;;;5034129;28;20226;-62
2021/07/20 06:34:49;;;;;;;21.07;12.00;;;15.60;99.90;;;;;;5033428;28;20309;-57
2021/07/20 06:37:16;;;;;;;21.03;12.03;;;15.60;99.90;;;;;;5033606;28;20218;-62
2021/07/20 06:39:43;;;;;;;23.20;11.73;;;15.60;99.90;;;;;;5033499;28;20252;-59
2021/07/20 06:42:11;;;;;;;24.57;11.73;;;15.60;99.90;;;;;;5033410;28;20206;-58
2021/07/20 06:44:40;;;;;;;27.17;11.47;;;15.80;99.90;;;;;;5032218;28;20260;-60
2021/07/20 06:47:07;;;;;;;19.80;11.80;;;15.90;99.90;;;;;;5033472;28;20210;-61
2021/07/20 06:49:38;;;;;;;20.90;11.47;;;16.00;99.90;;;;;;5033143;28;20278;-58
2021/07/20 06:52:06;;;;;;;20.43;12.50;;;16.20;99.90;;;;;;5033278;28;20734;-61
2021/07/20 06:54:32;;;;;;;17.43;10.83;;;16.30;99.90;;;;;;5032768;28;20749;-60
2021/07/20 06:57:01;;;;;;;19.43;11.20;;;16.30;70.40;;;;;;5033220;28;20210;-61
2021/07/20 06:59:29;;;;;;;15.23;10.27;;;16.40;36.10;;;;;;5033121;28;20675;-64
2021/07/20 07:01:58;;;;;;;18.87;10.60;;;16.30;1.00;;;;;;5033200;28;20202;-58
2021/07/20 07:04:29;;;;;;;19.60;10.33;;;16.20;1.00;;;;;;5032750;28;20210;-62
2021/07/20 07:06:59;;;;;;;20.50;12.13;;;16.20;1.00;;;;;;5033072;28;20210;-62
2021/07/20 07:09:26;;;;;;;23.23;11.17;;;16.30;1.00;;;;;;5033157;28;20321;-64
2021/07/20 07:11:54;;;;;;;18.30;11.07;;;16.40;1.00;;;;;;5032929;28;20733;-63
2021/07/20 07:14:21;;;;;;;18.27;10.60;;;16.40;1.00;;;;;;5032530;28;20248;-65
2021/07/20 07:16:48;;;;;;;20.93;9.73;;;16.40;1.00;;;;;;5033003;28;20282;-61
2021/07/20 07:19:19;;;;;;;19.10;11.07;;;16.50;1.00;;;;;;5032631;28;20663;-63
2021/07/20 07:21:46;;;;;;;15.87;9.40;;;16.50;1.00;;;;;;5032543;28;20202;-63
2021/07/20 07:24:16;;;;;;;20.17;7.80;;;16.70;1.00;;;;;;5032462;28;20559;-66
2021/07/20 07:26:44;;;;;;;12.67;7.97;;;16.90;1.00;;;;;;5032910;28;20202;-66
2021/07/20 07:29:12;;;;;;;13.30;7.27;;;16.90;1.00;;;;;;5032255;28;20265;-67
2021/07/20 07:31:39;;;;;;;16.47;8.03;;;17.00;1.00;;;;;;5032448;28;20694;-65
2021/07/20 07:34:06;;;;;;;14.67;7.77;;;17.00;1.00;;;;;;5031689;28;20894;-66
2021/07/20 07:36:34;;;;;;;14.23;8.53;;;17.20;99.90;;;;;;5032665;28;20284;-65
2021/07/20 07:39:02;;;;;;;14.83;8.43;;;17.30;1.00;;;;;;5032656;28;20622;-66
2021/07/20 07:41:34;;;;;;;16.97;8.73;;;17.40;99.90;;;;;;5032272;28;20289;-66
2021/07/20 07:44:02;;;;;;;15.77;8.53;;;17.60;1.00;;;;;;5032161;28;20294;-65
2021/07/20 07:46:30;;;;;;;16.40;7.70;;;17.80;99.90;;;;;;5032177;28;20671;-66
2021/07/20 07:48:57;;;;;;;12.53;6.73;;;18.10;1.00;;;;;;5031945;28;20230;-65
2021/07/20 07:51:25;;;;;;;11.43;6.30;;;18.20;99.90;;;;;;5032149;28;20206;-65
2021/07/20 07:53:53;;;;;;;13.10;6.77;;;18.30;99.90;;;;;;5031819;28;20260;-65
2021/07/20 07:56:20;;;;;;;10.53;6.57;;;18.30;99.90;;;;;;5032340;28;20238;-65
2021/07/20 07:58:48;;;;;;;11.80;7.40;;;18.60;99.90;;;;;;5032069;28;20253;-65
2021/07/20 08:01:16;;;;;;;11.23;7.03;;;18.70;99.90;;;;;;5031948;28;20273;-66
2021/07/20 08:03:47;;;;;;;14.97;7.30;;;18.70;99.90;;;;;;5031965;28;20210;-64
2021/07/20 08:06:20;;;;;;;13.67;7.83;;;18.60;99.90;;;;;;5032135;28;20214;-64
2021/07/20 08:08:49;;;;;;;11.43;6.80;;;18.60;99.90;;;;;;5032088;28;20337;-65
2021/07/20 08:11:16;;;;;;;13.07;7.40;;;18.50;99.90;;;;;;5032268;28;20210;-65
2021/07/20 08:13:44;;;;;;;14.27;7.70;;;18.30;99.90;;;;;;5031260;28;20633;-65
2021/07/20 08:16:14;;;;;;;13.77;7.90;;;18.10;99.90;;;;;;5032327;28;20602;-65
2021/07/20 08:18:41;;;;;;;15.37;8.57;;;18.20;99.90;;;;;;5032015;28;20233;-64
2021/07/20 08:21:08;;;;;;;14.77;8.37;;;18.10;99.90;;;;;;5031988;28;20214;-63
2021/07/20 08:23:36;;;;;;;12.97;7.20;;;17.90;99.90;;;;;;5031375;28;20202;-64
2021/07/20 08:26:06;;;;;;;13.30;7.27;;;17.80;99.90;;;;;;5031825;28;20210;-65
2021/07/20 08:28:37;;;;;;;11.50;7.03;;;17.70;99.90;;;;;;5031676;28;21037;-64
2021/07/20 08:31:08;;;;;;;15.30;8.07;;;17.80;99.90;;;;;;5037627;28;20292;-65
2021/07/20 08:33:38;;;;;;;12.43;7.03;;;17.90;99.90;;;;;;5038855;28;20222;-65
2021/07/20 08:36:08;;;;;;;14.97;7.20;;;17.80;99.90;;;;;;5037152;28;20206;-65
2021/07/20 08:38:35;;;;;;;13.87;6.83;;;17.70;99.90;;;;;;5033092;28;20222;-65
2021/07/20 08:41:13;;;;;;;15.50;7.60;;;17.60;99.90;;;;;;5034819;28;20210;-65
2021/07/20 08:44:00;;;;;;;11.70;6.93;;;17.70;99.90;;;;;;5033461;28;20616;-65
2021/07/20 08:46:57;;;;;;;13.87;7.50;;;17.90;99.90;;;;;;5033896;28;20215;-66
2021/07/20 08:49:39;;;;;;;12.57;7.23;;;17.90;99.90;;;;;;5031458;28;20242;-65
2021/07/20 08:52:12;;;;;;;13.30;7.03;;;18.20;99.90;;;;;;5031640;28;20500;-66
2021/07/20 08:54:46;;;;;;;12.93;7.27;;;18.70;99.90;;;;;;5031030;28;20276;-66
2021/07/20 08:57:16;;;;;;;11.63;7.20;;;19.00;99.90;;;;;;5031496;28;20206;-65
2021/07/20 08:59:48;;;;;;;12.90;7.53;;;19.00;99.90;;;;;;5030173;28;20225;-67
2021/07/20 09:02:30;;;;;;;12.03;7.50;;;19.00;99.90;;;;;;5031503;28;20620;-68
2021/07/20 09:05:06;;;;;;;11.87;7.67;;;19.30;99.90;;;;;;5030895;28;20206;-64
2021/07/20 09:07:43;;;;;;;12.77;8.20;;;19.70;99.90;;;;;;5033973;28;20775;-65
2021/07/20 09:10:13;;;;;;;11.90;7.73;;;19.70;99.90;;;;;;5035549;28;20202;-65
2021/07/20 09:12:42;;;;;;;14.87;7.77;;;19.60;99.90;;;;;;5035177;28;20230;-64
2021/07/20 09:15:12;;;;;;;13.40;8.10;;;19.50;99.90;;;;;;5035232;28;20629;-64
2021/07/20 09:17:46;;;;;;;11.20;7.97;;;19.80;99.90;;;;;;5035210;28;20226;-65
2021/07/20 09:20:17;;;;;;;13.60;7.73;;;19.90;99.90;;;;;;5035293;28;20256;-65
2021/07/20 09:22:50;;;;;;;13.40;7.63;;;20.00;99.90;;;;;;5034727;28;20792;-66
2021/07/20 09:25:22;;;;;;;11.43;7.57;;;20.20;99.90;;;;;;5034762;28;20267;-65
2021/07/20 09:27:54;;;;;;;11.57;7.37;;;20.60;99.90;;;;;;5034679;28;20646;-65
2021/07/20 09:30:25;;;;;;;17.90;10.20;;;20.80;99.90;;;;;;5017491;28;20211;-63
2021/07/20 09:33:05;;;;;;;14.77;8.13;;;20.60;99.90;;;;;;5014786;28;20218;-65
2021/07/20 09:35:44;;;;;;;14.00;8.20;;;20.70;99.90;;;;;;5015103;28;20580;-64
2021/07/20 09:38:16;;;;;;;14.80;8.20;;;20.80;99.90;;;;;;5015110;28;20308;-64
2021/07/20 09:40:54;;;;;;;13.70;8.60;;;20.40;99.90;;;;;;5025748;28;20210;-65
2021/07/20 09:43:39;;;;;;;14.40;8.40;;;19.80;99.90;;;;;;5034295;28;20729;-64
2021/07/20 09:46:08;;;;;;;15.00;8.77;;;19.60;99.90;;;;;;5021504;28;20296;-63
2021/07/20 09:48:45;;;;;;;10.47;7.17;;;19.30;99.90;;;;;;5014612;28;20234;-63
2021/07/20 09:51:28;;;;;;;14.80;9.77;;;19.00;99.90;;;;;;5015566;28;20215;-63
2021/07/20 09:54:10;;;;;;;13.00;8.43;;;18.90;99.90;;;;;;5013892;28;20270;-62
2021/07/20 09:56:47;;;;;;;13.40;8.67;;;18.80;99.90;;;;;;5014471;28;20617;-61
2021/07/20 09:59:38;;;;;;;13.73;8.00;;;18.80;99.90;;;;;;5014713;28;20230;-62
2021/07/20 10:02:17;;;;;;;12.37;8.73;;;18.60;99.90;;;;;;5014327;28;20211;-62
2021/07/20 10:04:54;;;;;;;11.50;8.03;;;18.80;99.90;;;;;;5014176;28;20219;-62
2021/07/20 10:07:30;;;;;;;11.03;7.73;;;19.20;99.90;;;;;;5014569;28;20281;-62
2021/07/20 10:10:04;;;;;;;12.63;8.33;;;19.60;99.90;;;;;;5013678;28;20214;-62
2021/07/20 10:12:42;;;;;;;12.80;8.53;;;20.00;99.90;;;;;;5013995;28;20230;-61
2021/07/20 10:15:11;;;;;;;10.53;7.93;;;20.30;99.90;;;;;;5015216;28;20202;-63
2021/07/20 10:17:44;;;;;;;10.50;7.27;;;20.50;99.90;;;;;;5013440;28;20638;-59
2021/07/20 10:20:16;;;;;;;14.37;8.47;;;20.60;99.90;;;;;;5013959;28;20211;-62
2021/07/20 10:22:53;;;;;;;11.13;7.97;;;20.50;99.90;;;;;;5014069;28;20624;-61
2021/07/20 10:25:23;;;;;;;13.07;7.97;;;19.90;99.90;;;;;;5013884;28;20206;-62
2021/07/20 10:27:54;;;;;;;13.77;8.33;;;19.40;99.90;;;;;;5014199;28;20231;-63
2021/07/20 10:30:23;;;;;;;13.03;8.47;;;19.20;99.90;;;;;;5014241;28;20264;-62
2021/07/20 10:33:08;;;;;;;14.83;8.60;;;19.30;99.90;;;;;;5013774;28;20646;-61
2021/07/20 10:35:41;;;;;;;12.17;8.57;;;19.20;99.90;;;;;;5013617;28;20215;-62
2021/07/20 10:38:12;;;;;;;13.67;8.73;;;19.10;99.90;;;;;;5014130;28;20238;-62
2021/07/20 10:40:40;;;;;;;15.70;9.40;;;19.00;99.90;;;;;;5014037;28;20207;-62
2021/07/20 10:43:13;;;;;;;14.97;8.07;;;19.10;99.90;;;;;;5013467;28;20261;-65
2021/07/20 10:45:42;;;;;;;13.73;9.00;;;19.30;99.90;;;;;;5013720;28;20211;-66
2021/07/20 10:48:12;;;;;;;13.50;8.43;;;19.80;99.90;;;;;;5013221;28;20653;-65
2021/07/20 10:50:52;;;;;;;12.73;8.03;;;20.20;99.90;;;;;;5013612;28;20675;-67
2021/07/20 10:53:31;;;;;;;14.33;8.87;;;20.70;99.90;;;;;;5013430;28;20223;-66
2021/07/20 10:56:06;;;;;;;14.70;9.20;;;20.90;99.90;;;;;;5013496;28;20211;-66
2021/07/20 10:58:43;;;;;;;12.27;8.30;;;20.80;99.90;;;;;;5013207;28;20300;-65
2021/07/20 11:01:17;;;;;;;13.93;8.33;;;20.70;99.90;;;;;;5013645;28;20294;-66
2021/07/20 11:03:53;;;;;;;10.73;8.07;;;20.30;99.90;;;;;;5013038;28;20199;-65
2021/07/20 11:06:23;;;;;;;14.40;8.37;;;20.30;99.90;;;;;;5013475;28;20262;-66
2021/07/20 11:08:54;;;;;;;12.67;8.43;;;20.40;99.90;;;;;;5012832;28;20281;-64
2021/07/20 11:11:26;;;;;;;11.03;7.87;;;20.40;99.90;;;;;;5013324;28;20237;-63
2021/07/20 11:13:55;;;;;;;13.07;8.10;;;20.30;99.90;;;;;;5013008;28;20277;-63
2021/07/20 11:16:24;;;;;;;13.43;7.60;;;20.10;99.90;;;;;;5013207;28;20211;-64
2021/07/20 11:18:52;;;;;;;12.07;7.80;;;20.00;99.90;;;;;;5012805;28;20309;-64
2021/07/20 11:21:22;;;;;;;14.13;8.60;;;19.70;99.90;;;;;;5012894;28;20266;-64
2021/07/20 11:23:51;;;;;;;12.07;7.93;;;19.80;99.90;;;;;;5012703;28;20214;-65
2021/07/20 11:26:19;;;;;;;14.30;7.80;;;20.00;99.90;;;;;;5012857;28;20698;-64
2021/07/20 11:28:47;;;;;;;15.00;8.37;;;20.30;99.90;;;;;;5012816;28;20584;-65
2021/07/20 11:31:20;;;;;;;11.27;7.47;;;20.40;99.90;;;;;;5012900;28;20626;-65
2021/07/20 11:33:53;;;;;;;12.40;8.23;;;20.60;99.90;;;;;;5012118;28;20223;-65
2021/07/20 11:36:23;;;;;;;12.60;7.67;;;20.60;99.90;;;;;;5013051;28;20207;-65
2021/07/20 11:38:55;;;;;;;10.63;7.20;;;20.60;99.90;;;;;;5012083;28;20707;-67
2021/07/20 11:41:34;;;;;;;13.60;7.90;;;20.30;99.90;;;;;;5012916;28;20633;-68
2021/07/20 11:44:09;;;;;;;11.77;8.10;;;20.40;99.90;;;;;;5012514;28;20205;-65
2021/07/20 11:46:41;;;;;;;12.00;8.27;;;20.50;99.90;;;;;;5028065;28;20209;-63
2021/07/20 11:49:11;;;;;;;14.77;7.97;;;20.50;99.90;;;;;;5030621;28;20303;-64
2021/07/20 11:51:45;;;;;;;13.57;7.97;;;20.40;99.90;;;;;;5032050;28;20206;-64
2021/07/20 11:54:24;;;;;;;13.47;7.83;;;20.30;99.90;;;;;;5031974;28;20647;-65
2021/07/20 11:57:00;;;;;;;9.10;6.23;;;20.40;99.90;;;;;;5031876;28;20215;-65
2021/07/20 12:00:05;;;;;;;16.37;9.67;;;20.50;99.90;;;;;;5032394;28;20280;-66
2021/07/20 12:03:04;;;;;;;11.43;7.20;;;20.70;99.90;;;;;;4970969;28;20208;-66
2021/07/20 12:05:57;;;;;;;11.93;7.40;;;20.80;99.90;;;;;;5032052;28;20214;-64
2021/07/20 12:08:30;;;;;;;11.13;7.40;;;21.10;99.90;;;;;;5031998;28;20226;-64
2021/07/20 12:11:07;;;;;;;11.60;7.33;;;21.50;99.90;;;;;;5031765;28;20579;-65
2021/07/20 12:13:35;;;;;;;12.27;7.87;;;21.80;99.90;;;;;;5031133;28;20655;-64
2021/07/20 12:16:08;;;;;;;12.53;8.00;;;21.50;99.90;;;;;;5031970;28;20269;-64
2021/07/20 12:18:46;;;;;;;9.83;7.20;;;21.20;99.90;;;;;;5031796;28;20226;-65
2021/07/20 12:21:14;;;;;;;9.47;6.93;;;21.00;99.90;;;;;;5031687;28;20206;-65
2021/07/20 12:23:41;;;;;;;14.03;7.80;;;20.70;99.90;;;;;;5031155;28;20248;-63
2021/07/20 12:26:10;;;;;;;11.63;7.53;;;20.40;99.90;;;;;;5031709;28;20268;-65
2021/07/20 12:28:41;;;;;;;12.40;8.07;;;20.50;99.90;;;;;;5031835;28;20245;-64
2021/07/20 12:31:08;;;;;;;13.13;7.80;;;20.60;99.90;;;;;;5031783;28;20263;-64
2021/07/20 12:33:35;;;;;;;13.97;8.50;;;20.90;99.90;;;;;;5031219;28;20300;-64
2021/07/20 12:36:04;;;;;;;14.63;7.83;;;20.90;99.90;;;;;;5031688;28;20210;-63
2021/07/20 12:38:33;;;;;;;12.73;7.73;;;21.20;99.90;;;;;;5031553;28;20642;-66
2021/07/20 12:41:06;;;;;;;11.93;8.13;;;21.40;99.90;;;;;;5030970;28;20260;-64
2021/07/20 12:43:34;;;;;;;14.80;7.93;;;21.50;99.90;;;;;;5031223;28;20686;-67
2021/07/20 12:46:10;;;;;;;10.80;7.00;;;21.40;99.90;;;;;;5031478;28;20264;-67
2021/07/20 12:48:46;;;;;;;11.67;6.97;;;21.50;99.90;;;;;;5031356;28;20645;-66
2021/07/20 12:51:14;;;;;;;14.77;8.33;;;21.40;99.90;;;;;;5031403;28;20220;-66
2021/07/20 12:53:42;;;;;;;13.93;7.40;;;21.30;99.90;;;;;;5031077;28;20280;-66